createdAt,value
2022-12-31T11:42:20.873Z,79.7
2022-12-31T11:48:38.332Z,79.5
2022-12-31T11:54:27.941Z,79.8
2022-12-31T12:00:17.460Z,79.5
2022-12-31T12:06:08.277Z,80
2022-12-31T12:12:00.846Z,79.1
2022-12-31T12:17:50.973Z,79.2
2022-12-31T12:23:44.757Z,78.9
2022-12-31T12:29:35.665Z,79.2
2022-12-31T12:35:25.389Z,78.8
2022-12-31T12:41:16.987Z,77.2
2022-12-31T12:47:09.360Z,77.7
2022-12-31T12:53:01.341Z,77.1
2022-12-31T12:58:51.009Z,76.7
2022-12-31T13:04:41.489Z,76.9
2022-12-31T13:10:30.973Z,76.2
2022-12-31T13:16:21.932Z,76
2022-12-31T13:22:12.041Z,75.8
2022-12-31T13:28:02.465Z,74.9
2022-12-31T13:33:52.771Z,75.4
2022-12-31T13:39:43.495Z,75.6
2022-12-31T13:45:33.993Z,75.6
2022-12-31T13:51:24.951Z,76.3
2022-12-31T13:57:13.995Z,76.8
2022-12-31T14:03:05.208Z,76.2
2022-12-31T14:08:55.782Z,76.7
2022-12-31T14:14:46.386Z,76.1
2022-12-31T14:20:35.920Z,76
2022-12-31T14:26:25.227Z,76
2022-12-31T14:32:15.821Z,76
2022-12-31T14:38:07.166Z,75.6
2022-12-31T14:43:57.611Z,75.5
2022-12-31T14:49:47.846Z,74.9
2022-12-31T14:55:39.109Z,75.3
2022-12-31T15:01:29.399Z,75.7
2022-12-31T15:07:21.727Z,75.8
2022-12-31T15:13:11.952Z,76
2022-12-31T15:19:02.272Z,76.5
2022-12-31T15:24:52.169Z,77.2
2022-12-31T15:30:42.980Z,77.9
2022-12-31T15:36:34.374Z,78.5
2022-12-31T15:42:53.083Z,78.6
2022-12-31T15:48:41.607Z,79.2
2022-12-31T15:54:36.089Z,79.3
2022-12-31T16:00:26.256Z,79.3
2022-12-31T16:06:17.603Z,80.1
2022-12-31T16:12:07.906Z,80.3
2022-12-31T16:17:58.259Z,79.9
2022-12-31T16:23:50.183Z,80.1
2022-12-31T16:29:41.086Z,80.8
2022-12-31T16:35:35.094Z,81
2022-12-31T16:41:27.620Z,80.7
2022-12-31T16:47:17.138Z,80.4
2022-12-31T16:53:07.051Z,82.3
2022-12-31T16:58:56.979Z,83
2022-12-31T17:04:56.419Z,83.2
2022-12-31T17:10:45.956Z,83.6
2022-12-31T17:16:36.811Z,83.6
2022-12-31T17:22:37.935Z,83.6
2022-12-31T17:28:28.678Z,83.8
2022-12-31T17:34:18.949Z,83.6
2022-12-31T17:40:51.825Z,83.7
2022-12-31T17:46:40.830Z,83.4
2022-12-31T17:52:30.576Z,83.5
2022-12-31T17:58:26.086Z,83.8
2022-12-31T18:04:19.240Z,83.9
2022-12-31T18:10:09.635Z,83.7
2022-12-31T18:16:00.856Z,83.5
2022-12-31T18:21:51.076Z,83.8
2022-12-31T18:27:42.040Z,83.6
2022-12-31T18:33:31.803Z,83.2
2022-12-31T18:39:23.898Z,83.4
2022-12-31T18:45:14.369Z,82.9
2022-12-31T18:51:04.215Z,80.3
2022-12-31T18:56:58.881Z,81
2022-12-31T19:02:49.771Z,81.4
2022-12-31T19:08:39.834Z,80
2022-12-31T19:14:30.581Z,80
2022-12-31T19:20:19.571Z,80.6
2022-12-31T19:26:09.464Z,81
2022-12-31T19:32:00.190Z,80.7
2022-12-31T19:37:52.776Z,80.3
2022-12-31T19:43:43.459Z,80.4
2022-12-31T19:49:35.713Z,79.7
2022-12-31T19:55:26.756Z,79.6
2022-12-31T20:01:17.158Z,78.3
2022-12-31T20:07:08.324Z,78.4
2022-12-31T20:12:58.615Z,77.9
2022-12-31T20:18:49.061Z,77.2
2022-12-31T20:24:38.853Z,76.8
2022-12-31T20:30:29.138Z,75.5
2022-12-31T20:36:20.136Z,75.3
2022-12-31T20:42:10.511Z,75.5
2022-12-31T20:48:00.970Z,74.3
2022-12-31T20:53:52.193Z,74.8
2022-12-31T20:59:42.062Z,74.6
2022-12-31T21:05:32.744Z,72.6
2022-12-31T21:11:25.430Z,69.6
2022-12-31T21:17:16.205Z,68.9
2022-12-31T21:23:06.029Z,69.2
2022-12-31T21:28:56.491Z,68.2
2022-12-31T21:35:40.642Z,65.6
2022-12-31T21:41:45.332Z,66.5
2022-12-31T21:47:47.027Z,64.4
2022-12-31T21:53:39.315Z,63.7
2022-12-31T21:59:29.698Z,62.8
2022-12-31T22:05:26.636Z,63
2022-12-31T22:11:18.633Z,63.4
2022-12-31T22:17:09.603Z,64.9
2022-12-31T22:23:00.524Z,65.3
2022-12-31T22:28:51.225Z,65.1
2022-12-31T22:34:41.796Z,65.3
2022-12-31T22:40:31.811Z,64.2
2022-12-31T22:46:24.335Z,63.6
2022-12-31T22:52:15.135Z,62.2
2022-12-31T22:58:07.107Z,61.4
2022-12-31T23:03:58.333Z,64.5
2022-12-31T23:09:49.417Z,66
2022-12-31T23:15:40.711Z,66.9
2022-12-31T23:21:33.742Z,67
2022-12-31T23:27:23.980Z,67.4
2022-12-31T23:33:15.349Z,66.6
2022-12-31T23:39:06.711Z,67.5
2022-12-31T23:44:58.529Z,66.6
2022-12-31T23:50:55.675Z,66.8
2022-12-31T23:56:48.533Z,67
